createdAt,value
2023-06-27T00:01:26.796Z,4.10
2023-06-27T00:03:56.390Z,4.15
2023-06-27T00:06:25.309Z,4.22
2023-06-27T00:08:53.397Z,3.88
2023-06-27T00:11:21.571Z,4.20
2023-06-27T00:13:51.420Z,4.00
2023-06-27T00:16:19.629Z,4.13
2023-06-27T00:18:50.204Z,3.90
2023-06-27T00:21:19.902Z,4.20
2023-06-27T00:23:50.009Z,3.72
2023-06-27T00:26:18.296Z,3.90
2023-06-27T00:28:46.634Z,3.83
2023-06-27T00:31:14.818Z,4.30
2023-06-27T00:33:43.007Z,4.45
2023-06-27T00:36:11.421Z,4.18
2023-06-27T00:38:40.878Z,4.60
2023-06-27T00:41:09.098Z,3.85
2023-06-27T00:43:37.513Z,4.57
2023-06-27T00:46:08.742Z,3.70
2023-06-27T00:48:37.478Z,4.03
2023-06-27T00:51:06.430Z,3.95
2023-06-27T00:53:35.127Z,4.10
2023-06-27T00:56:05.188Z,4.20
2023-06-27T00:58:34.397Z,4.13
2023-06-27T01:01:04.258Z,4.38
2023-06-27T01:03:34.781Z,4.28
2023-06-27T01:06:10.108Z,3.90
2023-06-27T01:08:43.578Z,4.47
2023-06-27T01:11:18.958Z,4.00
2023-06-27T01:13:51.762Z,4.10
2023-06-27T01:16:23.894Z,4.18
2023-06-27T01:18:53.033Z,4.30
2023-06-27T01:21:23.214Z,4.03
2023-06-27T01:23:56.119Z,4.03
2023-06-27T01:26:25.173Z,4.07
2023-06-27T01:28:54.728Z,4.13
2023-06-27T01:31:29.436Z,4.07
2023-06-27T01:34:01.337Z,4.20
2023-06-27T01:36:38.184Z,4.10
2023-06-27T01:39:11.254Z,4.13
2023-06-27T01:41:41.017Z,4.35
2023-06-27T01:44:11.984Z,3.90
2023-06-27T01:46:40.589Z,4.13
2023-06-27T01:49:10.477Z,4.45
2023-06-27T01:51:38.819Z,3.80
2023-06-27T01:54:08.535Z,3.80
2023-06-27T01:56:36.771Z,3.97
2023-06-27T01:59:05.050Z,3.90
2023-06-27T02:01:33.510Z,4.10
2023-06-27T02:04:04.574Z,4.57
2023-06-27T02:06:32.817Z,4.30
2023-06-27T02:12:19.557Z,4.15
2023-06-27T02:14:47.884Z,3.90
2023-06-27T02:17:16.155Z,4.53
2023-06-27T02:19:44.496Z,4.30
2023-06-27T02:22:12.708Z,4.30
2023-06-27T02:24:42.421Z,4.82
2023-06-27T02:27:10.622Z,4.63
2023-06-27T02:29:39.029Z,4.28
2023-06-27T02:32:08.621Z,4.15
2023-06-27T02:34:36.795Z,4.00
2023-06-27T02:37:05.450Z,3.95
2023-06-27T02:39:33.777Z,4.20
2023-06-27T02:42:07.464Z,4.00
2023-06-27T02:44:35.694Z,4.00
2023-06-27T02:47:04.097Z,4.40
2023-06-27T02:49:32.281Z,4.25
2023-06-27T02:52:00.598Z,3.92
2023-06-27T02:54:28.907Z,4.47
2023-06-27T02:56:57.068Z,4.45
2023-06-27T02:59:26.696Z,4.20
2023-06-27T03:01:54.876Z,3.70
2023-06-27T03:04:24.269Z,4.38
2023-06-27T03:06:52.893Z,4.47
2023-06-27T03:09:21.911Z,4.35
2023-06-27T03:11:50.213Z,4.70
2023-06-27T03:14:20.310Z,4.35
2023-06-27T03:16:50.129Z,4.10
2023-06-27T03:19:22.465Z,4.20
2023-06-27T03:21:55.690Z,3.70
2023-06-27T03:24:23.895Z,4.10
2023-06-27T03:26:52.089Z,4.00
2023-06-27T03:29:20.524Z,3.90
2023-06-27T03:31:50.363Z,4.10
2023-06-27T03:34:19.611Z,4.25
2023-06-27T03:36:47.820Z,4.43
2023-06-27T03:39:16.238Z,4.55
2023-06-27T03:41:44.440Z,4.15
2023-06-27T03:44:12.682Z,4.50
2023-06-27T03:46:41.360Z,4.38
2023-06-27T03:49:10.985Z,4.57
2023-06-27T03:51:42.983Z,4.60
2023-06-27T03:54:12.682Z,4.20
2023-06-27T03:56:41.078Z,4.45
2023-06-27T03:59:09.485Z,4.57
2023-06-27T04:01:40.663Z,4.53
2023-06-27T04:04:13.926Z,4.53
2023-06-27T04:06:43.653Z,4.40
2023-06-27T04:09:11.956Z,4.43
2023-06-27T04:11:41.558Z,4.53
2023-06-27T04:14:09.816Z,5.10
2023-06-27T04:16:38.092Z,5.00
2023-06-27T04:19:06.398Z,4.60
2023-06-27T04:21:36.186Z,4.95
2023-06-27T04:24:04.898Z,5.05
2023-06-27T04:26:33.098Z,5.40
2023-06-27T04:29:01.331Z,4.70
2023-06-27T04:31:33.438Z,4.85
2023-06-27T04:34:01.802Z,4.63
2023-06-27T04:36:42.151Z,5.15
2023-06-27T04:39:11.084Z,5.28
2023-06-27T04:41:39.377Z,5.07
2023-06-27T04:44:07.672Z,5.07
2023-06-27T04:46:35.911Z,5.00
2023-06-27T04:49:04.771Z,5.40
2023-06-27T04:51:46.412Z,5.60
2023-06-27T04:54:14.613Z,4.95
2023-06-27T04:56:42.932Z,4.82
2023-06-27T04:59:11.984Z,5.25
2023-06-27T05:01:40.249Z,5.15
2023-06-27T05:04:08.826Z,5.53
2023-06-27T05:06:38.476Z,5.47
2023-06-27T05:09:07.852Z,4.82
2023-06-27T05:11:36.344Z,5.22
2023-06-27T05:14:09.661Z,5.07
2023-06-27T05:16:42.248Z,5.28
2023-06-27T05:21:45.539Z,5.53
2023-06-27T05:24:13.970Z,5.45
2023-06-27T05:26:42.110Z,5.82
2023-06-27T05:29:10.354Z,5.30
2023-06-27T05:31:38.510Z,5.32
2023-06-27T05:34:09.861Z,5.45
2023-06-27T05:36:38.220Z,5.35
2023-06-27T05:39:11.250Z,5.32
2023-06-27T05:41:39.548Z,5.20
2023-06-27T05:44:08.371Z,5.45
2023-06-27T05:46:40.446Z,4.82
2023-06-27T05:49:09.235Z,4.57
2023-06-27T05:51:37.625Z,5.00
2023-06-27T05:54:07.183Z,4.88
2023-06-27T05:56:35.367Z,4.47
2023-06-27T05:59:03.841Z,5.10
2023-06-27T06:01:32.304Z,4.65
2023-06-27T06:04:00.637Z,4.65
2023-06-27T06:06:28.908Z,4.88
2023-06-27T06:08:56.996Z,4.72
2023-06-27T06:11:26.449Z,4.53
2023-06-27T06:13:54.668Z,4.40
2023-06-27T06:16:22.957Z,4.15
2023-06-27T06:18:51.233Z,4.15
2023-06-27T06:21:19.461Z,4.50
2023-06-27T06:23:47.632Z,4.28
2023-06-27T06:26:15.850Z,5.10
2023-06-27T06:28:45.954Z,4.75
2023-06-27T06:31:17.794Z,4.57
2023-06-27T06:33:47.285Z,4.45
2023-06-27T06:36:15.762Z,4.43
2023-06-27T06:38:43.976Z,5.20
2023-06-27T06:41:12.255Z,4.50
2023-06-27T06:43:40.383Z,4.45
2023-06-27T06:46:12.255Z,5.05
2023-06-27T06:48:40.564Z,4.25
2023-06-27T06:51:09.487Z,4.95
2023-06-27T06:53:37.881Z,4.88
2023-06-27T06:56:06.813Z,4.95
2023-06-27T06:58:35.032Z,5.10
2023-06-27T07:01:03.301Z,4.72
2023-06-27T07:03:34.666Z,5.30
2023-06-27T07:06:03.040Z,4.78
2023-06-27T07:08:31.615Z,4.80
2023-06-27T07:11:00.340Z,4.80
2023-06-27T07:13:28.486Z,4.60
2023-06-27T07:15:56.717Z,4.88
2023-06-27T07:18:25.094Z,5.10
2023-06-27T07:20:55.057Z,5.43
2023-06-27T07:23:23.304Z,5.30
2023-06-27T07:25:51.579Z,4.60
2023-06-27T07:28:21.496Z,4.90
2023-06-27T07:30:49.796Z,4.85
2023-06-27T07:33:19.395Z,5.30
2023-06-27T07:35:48.614Z,4.30
2023-06-27T07:38:20.368Z,4.60
2023-06-27T07:40:48.701Z,4.72
2023-06-27T07:43:16.929Z,4.45
2023-06-27T07:45:45.614Z,4.65
2023-06-27T07:48:13.922Z,4.50
2023-06-27T07:50:42.382Z,4.65
2023-06-27T07:53:10.811Z,5.05
2023-06-27T07:55:40.438Z,4.88
2023-06-27T07:58:08.895Z,4.90
2023-06-27T08:00:37.115Z,4.57
2023-06-27T08:03:05.492Z,4.65
2023-06-27T08:05:35.805Z,4.85
2023-06-27T08:08:04.079Z,4.93
2023-06-27T08:10:32.393Z,4.43
2023-06-27T08:13:01.999Z,4.63
2023-06-27T08:15:32.545Z,4.68
2023-06-27T08:18:03.487Z,4.85
2023-06-27T08:20:34.016Z,5.00
2023-06-27T08:23:03.276Z,4.70
2023-06-27T08:25:31.528Z,5.22
2023-06-27T08:28:01.090Z,4.60
2023-06-27T08:30:29.691Z,5.00
2023-06-27T08:32:57.975Z,5.30
2023-06-27T08:35:29.183Z,4.53
2023-06-27T08:37:58.558Z,5.00
2023-06-27T08:40:43.554Z,4.65
2023-06-27T08:43:13.281Z,4.75
2023-06-27T08:45:41.731Z,5.10
2023-06-27T08:48:12.848Z,4.63
2023-06-27T08:50:42.224Z,4.93
2023-06-27T08:53:14.618Z,4.70
2023-06-27T08:55:49.389Z,4.90
2023-06-27T08:58:22.042Z,4.70
2023-06-27T09:00:50.529Z,4.70
2023-06-27T09:03:19.404Z,4.85
2023-06-27T09:05:48.814Z,4.60
2023-06-27T09:08:17.686Z,4.80
2023-06-27T09:10:46.374Z,4.68
2023-06-27T09:13:15.767Z,4.15
2023-06-27T09:15:45.729Z,4.40
2023-06-27T09:18:13.996Z,4.45
2023-06-27T09:20:42.389Z,4.30
2023-06-27T09:23:16.802Z,4.18
2023-06-27T09:25:45.044Z,4.10
2023-06-27T09:28:18.283Z,4.20
2023-06-27T09:30:58.466Z,4.43
2023-06-27T09:33:27.994Z,3.78
2023-06-27T09:36:01.205Z,3.72
2023-06-27T09:41:05.377Z,3.45
2023-06-27T09:43:36.910Z,4.03
2023-06-27T09:46:07.582Z,3.50
2023-06-27T09:48:45.868Z,3.80
2023-06-27T09:51:14.125Z,3.70
2023-06-27T09:53:44.990Z,3.70
2023-06-27T09:56:13.347Z,3.80
2023-06-27T09:58:42.345Z,3.75
2023-06-27T10:01:12.376Z,4.30
2023-06-27T10:03:40.607Z,3.55
2023-06-27T10:06:12.905Z,3.88
2023-06-27T10:08:41.813Z,3.75
2023-06-27T10:13:58.986Z,4.10
2023-06-27T10:16:29.381Z,3.78
2023-06-27T10:18:57.957Z,3.72
2023-06-27T10:21:28.136Z,3.90
2023-06-27T10:23:59.949Z,4.20
2023-06-27T10:26:30.874Z,3.60
2023-06-27T10:28:59.653Z,3.60
2023-06-27T10:31:46.146Z,3.13
2023-06-27T10:34:20.038Z,3.40
2023-06-27T10:37:00.061Z,3.17
2023-06-27T10:39:30.194Z,3.40
2023-06-27T10:42:02.944Z,3.50
2023-06-27T10:44:31.735Z,3.70
2023-06-27T10:47:36.362Z,3.58
2023-06-27T10:50:10.666Z,3.28
2023-06-27T10:52:40.723Z,3.42
2023-06-27T10:55:22.726Z,3.53
2023-06-27T10:57:57.572Z,3.53
2023-06-27T11:00:27.815Z,3.50
2023-06-27T11:02:59.307Z,3.67
2023-06-27T11:05:51.082Z,3.85
2023-06-27T11:08:21.944Z,3.40
2023-06-27T11:10:52.427Z,3.97
2023-06-27T11:13:25.078Z,3.58
2023-06-27T11:15:55.187Z,4.03
2023-06-27T11:18:27.507Z,3.80
2023-06-27T11:20:57.343Z,4.10
2023-06-27T11:23:26.991Z,4.30
2023-06-27T11:25:56.224Z,3.80
2023-06-27T11:28:26.194Z,3.50
2023-06-27T11:31:00.644Z,3.67
2023-06-27T11:33:30.485Z,3.63
2023-06-27T11:36:00.913Z,3.40
2023-06-27T11:38:30.544Z,3.75
2023-06-27T11:40:59.340Z,3.70
2023-06-27T11:43:28.814Z,4.13
2023-06-27T11:45:59.525Z,3.83
2023-06-27T11:48:30.970Z,3.90
2023-06-27T11:51:01.236Z,4.40
2023-06-27T11:53:30.289Z,3.88
2023-06-27T11:58:31.681Z,3.80
2023-06-27T12:01:00.448Z,4.10
2023-06-27T12:03:31.873Z,4.05
2023-06-27T12:06:00.437Z,3.90
2023-06-27T12:08:32.890Z,4.00
2023-06-27T12:11:04.232Z,4.28
2023-06-27T12:13:35.009Z,4.18
2023-06-27T12:16:04.504Z,3.55
2023-06-27T12:18:34.786Z,4.10
2023-06-27T12:21:03.077Z,4.03
2023-06-27T12:23:31.908Z,4.47
2023-06-27T12:26:00.430Z,4.55
2023-06-27T12:28:29.366Z,4.10
2023-06-27T12:30:57.605Z,4.38
2023-06-27T12:33:26.336Z,4.38
2023-06-27T12:35:56.343Z,4.50
2023-06-27T12:38:24.633Z,4.70
2023-06-27T12:40:52.907Z,4.03
2023-06-27T12:43:23.921Z,4.43
2023-06-27T12:46:02.401Z,4.28
2023-06-27T12:48:30.716Z,4.47
2023-06-27T12:51:00.422Z,4.68
2023-06-27T12:53:28.615Z,4.60
2023-06-27T12:55:56.975Z,4.47
2023-06-27T12:58:25.314Z,4.60
2023-06-27T13:00:56.029Z,4.47
2023-06-27T13:03:24.488Z,4.97
2023-06-27T13:05:53.062Z,4.68
2023-06-27T13:08:22.699Z,4.60
2023-06-27T13:10:51.445Z,4.70
2023-06-27T13:13:20.079Z,4.53
2023-06-27T13:16:00.280Z,5.18
2023-06-27T13:18:33.339Z,4.68
2023-06-27T13:21:01.970Z,4.75
2023-06-27T13:23:31.802Z,4.60
2023-06-27T13:26:00.289Z,4.55
2023-06-27T13:28:29.419Z,4.55
2023-06-27T13:30:57.681Z,5.30
2023-06-27T13:33:26.257Z,4.45
2023-06-27T13:35:54.569Z,4.30
2023-06-27T13:38:22.860Z,4.93
2023-06-27T13:41:01.272Z,4.60
2023-06-27T13:43:29.456Z,4.55
2023-06-27T13:45:57.963Z,4.30
2023-06-27T13:48:27.770Z,4.80
2023-06-27T13:50:58.453Z,6.50
2023-06-27T13:53:27.043Z,4.95
2023-06-27T13:55:55.901Z,5.03
2023-06-27T13:58:26.994Z,4.93
2023-06-27T14:00:57.453Z,4.50
2023-06-27T14:03:26.046Z,3.80
2023-06-27T14:05:54.895Z,4.22
2023-06-27T14:08:23.557Z,4.35
2023-06-27T14:10:52.875Z,4.07
2023-06-27T14:13:21.306Z,4.40
2023-06-27T14:15:51.092Z,4.35
2023-06-27T14:18:20.303Z,4.43
2023-06-27T14:20:50.585Z,3.75
2023-06-27T14:23:21.175Z,4.13
2023-06-27T14:25:49.850Z,3.72
2023-06-27T14:28:20.842Z,3.88
2023-06-27T14:30:50.440Z,3.88
2023-06-27T14:33:22.559Z,3.83
2023-06-27T14:35:52.719Z,3.40
2023-06-27T14:38:21.463Z,3.20
2023-06-27T14:40:50.430Z,3.08
2023-06-27T14:43:20.278Z,3.20
2023-06-27T14:45:49.966Z,2.90
2023-06-27T14:48:18.410Z,3.25
2023-06-27T14:50:49.317Z,3.55
2023-06-27T14:53:17.687Z,3.25
2023-06-27T14:55:45.918Z,3.40
2023-06-27T14:58:14.048Z,3.08
2023-06-27T15:00:42.799Z,3.22
2023-06-27T15:03:12.705Z,3.00
2023-06-27T15:05:41.662Z,2.78
2023-06-27T15:08:10.035Z,3.05
2023-06-27T15:10:40.306Z,3.08
2023-06-27T15:13:09.317Z,3.00
2023-06-27T15:15:39.329Z,2.50
2023-06-27T15:18:07.783Z,2.90
2023-06-27T15:20:38.983Z,3.10
2023-06-27T15:23:07.391Z,3.10
2023-06-27T15:25:35.672Z,2.83
2023-06-27T15:28:04.709Z,2.90
2023-06-27T15:30:33.144Z,2.72
2023-06-27T15:33:12.605Z,2.70
2023-06-27T15:35:42.621Z,3.78
2023-06-27T15:38:12.065Z,2.70
2023-06-27T15:40:40.587Z,2.90
2023-06-27T15:43:09.862Z,2.83
2023-06-27T15:45:38.370Z,2.60
2023-06-27T15:48:07.283Z,2.85
2023-06-27T15:50:35.518Z,2.50
2023-06-27T15:53:05.130Z,2.58
2023-06-27T15:55:36.126Z,2.50
2023-06-27T15:58:04.888Z,2.60
2023-06-27T16:00:33.186Z,2.70
2023-06-27T16:03:01.587Z,2.80
2023-06-27T16:05:32.295Z,2.72
2023-06-27T16:08:00.904Z,3.50
2023-06-27T16:10:30.999Z,2.78
2023-06-27T16:12:59.934Z,2.78
2023-06-27T16:15:28.172Z,2.90
2023-06-27T16:17:56.561Z,4.60
2023-06-27T16:20:24.939Z,3.30
2023-06-27T16:22:53.420Z,3.63
2023-06-27T16:25:21.857Z,3.97
2023-06-27T16:27:51.461Z,3.65
2023-06-27T16:30:19.748Z,3.85
2023-06-27T16:32:48.286Z,3.17
2023-06-27T16:35:16.730Z,3.08
2023-06-27T16:37:44.955Z,2.60
2023-06-27T16:40:13.708Z,2.70
2023-06-27T16:42:42.198Z,2.67
2023-06-27T16:45:12.509Z,2.50
2023-06-27T16:47:40.738Z,2.50
2023-06-27T16:50:10.907Z,2.75
2023-06-27T16:52:39.284Z,2.47
2023-06-27T16:55:08.903Z,2.58
2023-06-27T16:57:37.192Z,2.88
2023-06-27T17:00:08.492Z,2.70
2023-06-27T17:02:38.758Z,2.88
2023-06-27T17:05:07.791Z,2.75
2023-06-27T17:07:36.259Z,2.60
2023-06-27T17:10:05.158Z,2.70
2023-06-27T17:12:33.461Z,2.38
2023-06-27T17:15:03.844Z,2.70
2023-06-27T17:17:32.305Z,2.88
2023-06-27T17:20:02.067Z,2.70
2023-06-27T17:22:32.917Z,2.42
2023-06-27T17:25:05.296Z,2.55
2023-06-27T17:27:34.129Z,2.80
2023-06-27T17:30:05.365Z,2.80
2023-06-27T17:32:34.079Z,2.72
2023-06-27T17:35:04.628Z,2.50
2023-06-27T17:37:35.704Z,3.00
2023-06-27T17:40:05.972Z,2.80
2023-06-27T17:42:38.929Z,3.10
2023-06-27T17:45:09.248Z,2.90
2023-06-27T17:47:47.112Z,2.60
2023-06-27T17:50:24.184Z,2.80
2023-06-27T17:52:55.041Z,2.92
2023-06-27T17:55:29.905Z,2.67
2023-06-27T17:58:02.075Z,2.65
2023-06-27T18:00:34.262Z,3.05
2023-06-27T18:03:08.981Z,3.10
2023-06-27T18:05:52.983Z,2.63
2023-06-27T18:08:24.794Z,2.95
2023-06-27T18:10:58.681Z,3.22
2023-06-27T18:13:40.667Z,2.83
2023-06-27T18:16:12.720Z,2.78
2023-06-27T18:18:55.658Z,3.00
2023-06-27T18:21:52.805Z,2.97
2023-06-27T18:24:32.600Z,2.80
2023-06-27T18:27:03.524Z,2.83
2023-06-27T18:29:50.949Z,3.33
2023-06-27T18:32:22.295Z,2.78
2023-06-27T18:34:56.366Z,2.70
2023-06-27T18:37:32.704Z,2.85
2023-06-27T18:40:04.044Z,3.28
2023-06-27T18:42:39.166Z,3.28
2023-06-27T18:45:22.925Z,3.33
2023-06-27T18:47:58.584Z,2.92
2023-06-27T18:50:30.752Z,3.00
2023-06-27T18:53:06.450Z,3.97
2023-06-27T18:55:43.313Z,5.05
2023-06-27T18:58:17.508Z,7.78
2023-06-27T19:00:54.923Z,4.78
2023-06-27T19:03:27.851Z,5.38
2023-06-27T19:06:05.322Z,3.90
2023-06-27T19:08:42.031Z,7.93
2023-06-27T19:11:31.395Z,3.92
2023-06-27T19:14:13.646Z,3.45
2023-06-27T19:16:44.998Z,4.40
2023-06-27T19:19:17.926Z,5.57
2023-06-27T19:22:08.923Z,3.67
2023-06-27T19:24:47.230Z,6.40
2023-06-27T19:27:19.209Z,3.65
2023-06-27T19:30:04.454Z,3.90
2023-06-27T19:32:37.982Z,3.72
2023-06-27T19:35:17.210Z,5.57
2023-06-27T19:37:53.967Z,4.03
2023-06-27T19:40:44.806Z,5.43
2023-06-27T19:43:13.582Z,4.15
2023-06-27T19:45:42.166Z,6.38
2023-06-27T19:48:13.744Z,4.32
2023-06-27T19:50:47.910Z,5.57
2023-06-27T19:53:24.148Z,4.70
2023-06-27T19:55:54.337Z,5.45
2023-06-27T19:58:32.730Z,5.30
2023-06-27T20:01:17.100Z,3.75
2023-06-27T20:03:55.785Z,3.67
2023-06-27T20:06:29.959Z,3.90
2023-06-27T20:09:05.921Z,3.80
2023-06-27T20:11:39.095Z,3.95
2023-06-27T20:14:11.004Z,4.03
2023-06-27T20:16:42.000Z,3.90
2023-06-27T20:21:59.257Z,5.10
2023-06-27T20:24:27.480Z,4.05
2023-06-27T20:26:57.489Z,3.97
2023-06-27T20:29:28.413Z,4.38
2023-06-27T20:32:02.162Z,4.22
2023-06-27T20:34:33.681Z,5.30
2023-06-27T20:37:09.517Z,3.97
2023-06-27T20:39:41.965Z,4.22
2023-06-27T20:42:29.796Z,4.07
2023-06-27T20:45:07.080Z,4.00
2023-06-27T20:47:35.419Z,3.88
2023-06-27T20:50:04.230Z,3.80
2023-06-27T20:52:32.439Z,4.20
2023-06-27T20:55:19.393Z,3.90
2023-06-27T20:57:50.615Z,3.50
2023-06-27T21:00:37.303Z,3.35
2023-06-27T21:03:14.860Z,3.33
2023-06-27T21:05:55.941Z,3.40
2023-06-27T21:08:25.780Z,3.17
2023-06-27T21:10:55.327Z,3.30
2023-06-27T21:13:27.653Z,3.65
2023-06-27T21:16:01.015Z,3.20
2023-06-27T21:18:30.081Z,3.10
2023-06-27T21:21:07.725Z,3.15
2023-06-27T21:23:38.822Z,2.95
2023-06-27T21:26:08.901Z,2.70
2023-06-27T21:28:38.783Z,3.05
2023-06-27T21:31:08.120Z,3.15
2023-06-27T21:34:04.941Z,3.20
2023-06-27T21:36:33.440Z,3.13
2023-06-27T21:39:08.395Z,3.40
2023-06-27T21:41:46.704Z,3.22
2023-06-27T21:44:16.774Z,3.03
2023-06-27T21:46:45.128Z,3.60
2023-06-27T21:49:13.620Z,3.90
2023-06-27T21:51:46.275Z,3.88
2023-06-27T21:54:15.079Z,4.35
2023-06-27T21:56:45.980Z,4.40
2023-06-27T21:59:18.550Z,4.47
2023-06-27T22:01:46.827Z,4.90
2023-06-27T22:04:19.692Z,5.22
2023-06-27T22:06:48.333Z,4.63
2023-06-27T22:09:16.665Z,4.95
2023-06-27T22:11:45.816Z,5.60
2023-06-27T22:14:16.052Z,5.00
2023-06-27T22:16:50.299Z,4.75
2023-06-27T22:19:31.101Z,5.53
2023-06-27T22:22:05.048Z,4.63
2023-06-27T22:24:33.780Z,5.35
2023-06-27T22:27:09.136Z,5.20
2023-06-27T22:29:37.967Z,5.13
2023-06-27T22:32:11.554Z,5.32
2023-06-27T22:34:39.882Z,4.93
2023-06-27T22:37:08.397Z,4.68
2023-06-27T22:39:36.845Z,4.60
2023-06-27T22:42:20.694Z,5.20
2023-06-27T22:44:51.663Z,5.50
2023-06-27T22:47:26.045Z,5.43
2023-06-27T22:50:05.245Z,5.10
2023-06-27T22:52:33.956Z,5.47
2023-06-27T22:55:03.221Z,5.20
2023-06-27T22:57:44.765Z,5.03
2023-06-27T23:00:23.945Z,5.32
2023-06-27T23:02:53.701Z,5.25
2023-06-27T23:05:22.349Z,5.65
2023-06-27T23:07:50.707Z,5.80
2023-06-27T23:10:19.143Z,4.90
2023-06-27T23:12:48.078Z,5.30
2023-06-27T23:15:19.317Z,5.28
2023-06-27T23:17:52.184Z,5.65
2023-06-27T23:20:26.945Z,5.20
2023-06-27T23:22:55.309Z,5.30
2023-06-27T23:25:26.595Z,5.07
2023-06-27T23:27:59.345Z,5.57
2023-06-27T23:30:29.846Z,5.18
2023-06-27T23:33:01.754Z,5.60
2023-06-27T23:35:31.672Z,5.22
2023-06-27T23:38:06.539Z,5.68
2023-06-27T23:43:21.351Z,6.05
2023-06-27T23:45:49.648Z,6.10
2023-06-27T23:48:20.760Z,6.30
2023-06-27T23:50:51.067Z,6.22
2023-06-27T23:53:23.188Z,5.75
2023-06-27T23:56:23.572Z,6.00
2023-06-27T23:59:06.275Z,5.40
